Hopewell, Pennsylvania
Current Conditions -  °F | °C
As of 1:53 AM on Sunday 26 Oct 2014 (Local Time) from KAOO Reporting Station
Clear Clear  
Wind Chill: 56°   Ceiling: Unl
Heat Index: 56°   Visibility: 10mi
Dew Point: 33°   Wind: 17mph
Humidity: 42%   Direction: 300°WNW
Pressure: 29.72"   Gusts: 29mph
Location:  40.14°N, 78.27°W
Report Text: KAOO 260553Z AUTO 30015G25KT 10SM CLR 13/01 A2972 RMK AO2 PK WND 29027/0520 SLP062 T01330006 10167 20133 53009
Loading
Personal Weather Stations






























Interactive Weather Map
Tropical Storm Tracking
New forecast layout! Learn more

10-Day Weather Forecast

Advertisements
Track Severe Weather on mobile